Time;durP1;ratioP1;P1;durP2;ratioP2;P2;SDS_P1;SDS_P2;PMS_P1;PMS_P2;Temp;Humidity;BMP_temperature;BMP_pressure;BME280_temperature;BME280_humidity;BME280_pressure;Samples;Min_cycle;Max_cycle;Signal;HPM_P1;HPM_P2
2021/06/19 00:02:06;;;;;;;2.60;2.40;;;25.70;62.40;;;;;;5092042;28;20185;-65
2021/06/19 00:04:31;;;;;;;2.92;2.55;;;25.70;62.40;;;;;;5092579;28;20509;-65
2021/06/19 00:07:03;;;;;;;2.70;2.42;;;25.90;62.60;;;;;;5092795;28;20208;-66
2021/06/19 00:09:29;;;;;;;2.65;2.45;;;25.70;62.40;;;;;;5091958;28;20691;-66
2021/06/19 00:11:55;;;;;;;2.70;2.50;;;25.70;62.50;;;;;;5092356;28;20169;-66
2021/06/19 00:14:20;;;;;;;3.38;2.60;;;25.70;62.50;;;;;;5092559;28;20177;-65
2021/06/19 00:16:46;;;;;;;2.92;2.70;;;25.70;62.40;;;;;;5091234;28;20173;-65
2021/06/19 00:19:12;;;;;;;3.00;2.70;;;25.70;62.40;;;;;;5092302;28;20230;-65
2021/06/19 00:21:37;;;;;;;2.50;2.30;;;25.70;62.40;;;;;;5091833;28;20650;-65
2021/06/19 00:24:03;;;;;;;2.78;2.55;;;25.70;62.40;;;;;;5091488;28;20639;-65
2021/06/19 00:26:29;;;;;;;2.38;2.22;;;25.70;62.50;;;;;;5092178;28;20538;-64
2021/06/19 00:28:54;;;;;;;2.28;2.10;;;25.70;62.40;;;;;;5092217;28;20297;-65
2021/06/19 00:31:20;;;;;;;3.05;2.78;;;25.70;62.40;;;;;;5091262;28;20270;-65
2021/06/19 00:33:45;;;;;;;3.03;2.60;;;25.70;62.40;;;;;;5091913;28;20170;-66
2021/06/19 00:36:11;;;;;;;2.38;2.20;;;25.60;62.30;;;;;;5092067;28;20166;-66
2021/06/19 00:38:36;;;;;;;2.53;2.33;;;25.70;62.30;;;;;;5091074;28;20181;-66
2021/06/19 00:41:02;;;;;;;2.38;2.20;;;25.70;62.30;;;;;;5092176;28;20177;-66
2021/06/19 00:43:27;;;;;;;2.75;2.20;;;25.70;62.30;;;;;;5090750;28;20624;-66
2021/06/19 00:45:53;;;;;;;3.00;2.60;;;25.70;62.30;;;;;;5091878;28;20201;-66
2021/06/19 00:48:18;;;;;;;2.50;2.40;;;25.70;62.30;;;;;;5092186;28;20206;-66
2021/06/19 00:50:44;;;;;;;2.70;2.50;;;25.60;62.20;;;;;;5091179;28;20222;-65
2021/06/19 00:53:10;;;;;;;2.45;2.25;;;25.60;62.20;;;;;;5091965;28;20252;-66
2021/06/19 00:55:35;;;;;;;2.60;2.40;;;25.60;62.20;;;;;;5091779;28;20170;-65
2021/06/19 00:58:01;;;;;;;2.72;2.50;;;25.60;62.20;;;;;;5091459;28;20174;-65
2021/06/19 01:00:27;;;;;;;2.45;2.25;;;25.60;62.10;;;;;;5092079;28;20189;-66
2021/06/19 01:02:56;;;;;;;2.53;2.33;;;25.60;62.10;;;;;;5091855;28;20280;-65
2021/06/19 01:05:21;;;;;;;2.30;2.10;;;25.60;62.10;;;;;;5091465;28;20205;-66
2021/06/19 01:07:47;;;;;;;2.55;2.20;;;25.60;62.10;;;;;;5091551;28;20248;-66
2021/06/19 01:10:13;;;;;;;2.42;2.28;;;25.60;62.10;;;;;;5091864;28;20227;-66
2021/06/19 01:12:40;;;;;;;2.78;2.30;;;25.60;62.10;;;;;;5091197;28;20173;-65
2021/06/19 01:15:06;;;;;;;4.00;2.63;;;25.60;62.10;;;;;;5073757;28;20673;-65
2021/06/19 01:17:32;;;;;;;2.35;2.15;;;25.60;62.00;;;;;;5091648;28;20204;-65
2021/06/19 01:20:08;;;;;;;2.83;2.47;;;25.60;62.00;;;;;;5091178;28;20589;-65
2021/06/19 01:22:34;;;;;;;2.50;2.30;;;25.60;62.00;;;;;;5091488;28;20268;-65
2021/06/19 01:25:00;;;;;;;2.40;2.22;;;25.50;61.90;;;;;;5092020;28;20282;-64
2021/06/19 01:27:30;;;;;;;2.60;2.40;;;25.50;61.90;;;;;;5091178;28;20181;-65
2021/06/19 01:29:56;;;;;;;2.67;2.47;;;25.50;61.90;;;;;;5091851;28;20654;-65
2021/06/19 01:32:23;;;;;;;2.30;2.17;;;25.50;61.90;;;;;;5091595;28;20758;-65
2021/06/19 01:34:48;;;;;;;2.15;2.05;;;25.50;61.90;;;;;;5090657;28;20174;-66
2021/06/19 01:37:17;;;;;;;2.72;2.53;;;25.50;61.90;;;;;;5091376;28;20184;-65
2021/06/19 01:39:42;;;;;;;2.58;2.38;;;25.50;61.90;;;;;;5090806;28;20264;-67
2021/06/19 01:42:08;;;;;;;2.47;2.28;;;25.50;61.80;;;;;;5091707;28;20260;-66
2021/06/19 01:44:33;;;;;;;2.50;2.30;;;25.50;61.80;;;;;;5091496;28;20170;-65
2021/06/19 01:46:59;;;;;;;2.30;2.20;;;25.50;61.80;;;;;;5090871;28;20627;-66
2021/06/19 01:49:34;;;;;;;2.50;2.35;;;25.50;61.80;;;;;;5091560;28;20279;-65
2021/06/19 01:52:00;;;;;;;2.55;2.38;;;25.50;61.80;;;;;;5091464;28;20256;-66
2021/06/19 01:54:26;;;;;;;2.40;2.28;;;25.50;61.80;;;;;;5090863;28;20213;-65
2021/06/19 01:56:51;;;;;;;2.35;2.25;;;25.50;61.80;;;;;;5093925;28;20220;-65
2021/06/19 01:59:17;;;;;;;1.98;1.88;;;25.50;61.80;;;;;;5094871;28;20589;-65
2021/06/19 02:01:45;;;;;;;2.50;2.28;;;25.50;61.80;;;;;;5093797;28;20651;-65
2021/06/19 02:04:10;;;;;;;2.50;2.00;;;25.50;61.70;;;;;;5094978;28;20177;-65
2021/06/19 02:06:36;;;;;;;2.45;2.35;;;25.50;61.80;;;;;;5094695;28;20181;-65
2021/06/19 02:09:04;;;;;;;2.88;2.13;;;25.50;61.70;;;;;;5094225;28;20213;-66
2021/06/19 02:11:30;;;;;;;3.05;2.75;;;25.50;61.80;;;;;;5094551;28;20170;-65
2021/06/19 02:13:55;;;;;;;2.83;2.20;;;25.50;61.80;;;;;;5094758;28;20180;-66
2021/06/19 02:16:21;;;;;;;2.65;2.22;;;25.50;61.70;;;;;;5093858;28;20174;-65
2021/06/19 02:18:46;;;;;;;2.40;2.30;;;25.50;61.70;;;;;;5094315;28;20170;-65
2021/06/19 02:21:12;;;;;;;2.22;2.00;;;25.50;61.70;;;;;;5094497;28;20544;-66
2021/06/19 02:23:37;;;;;;;2.63;2.42;;;25.50;61.70;;;;;;5093527;28;20251;-64
2021/06/19 02:26:03;;;;;;;2.30;2.10;;;25.40;61.60;;;;;;5094487;28;20178;-65
2021/06/19 02:28:28;;;;;;;2.50;2.40;;;25.40;61.60;;;;;;5094369;28;20205;-64
2021/06/19 02:30:55;;;;;;;2.28;2.08;;;25.50;61.60;;;;;;5092950;28;20671;-65
2021/06/19 02:33:21;;;;;;;2.40;2.20;;;25.40;61.50;;;;;;5094214;28;20186;-66
2021/06/19 02:35:47;;;;;;;2.95;2.70;;;25.40;61.40;;;;;;5093784;28;20193;-66
2021/06/19 02:38:13;;;;;;;2.53;2.40;;;25.40;61.50;;;;;;5093674;28;20173;-66
2021/06/19 02:40:42;;;;;;;2.03;1.92;;;25.40;61.50;;;;;;5093969;28;20173;-65
2021/06/19 02:43:08;;;;;;;2.33;2.13;;;25.40;61.50;;;;;;5093354;28;20261;-65
2021/06/19 02:45:33;;;;;;;2.13;1.92;;;25.40;61.40;;;;;;5093715;28;20257;-66
2021/06/19 02:47:59;;;;;;;2.17;2.03;;;25.40;61.40;;;;;;5093825;28;20213;-65
2021/06/19 02:50:29;;;;;;;2.63;2.00;;;25.40;61.40;;;;;;5093358;28;20174;-66
2021/06/19 02:52:56;;;;;;;2.10;1.98;;;25.40;61.40;;;;;;5093790;28;20791;-65
2021/06/19 02:55:24;;;;;;;2.40;2.20;;;25.40;61.40;;;;;;5093957;28;20182;-65
2021/06/19 02:57:49;;;;;;;3.58;2.17;;;25.40;61.40;;;;;;5092739;28;20260;-65
2021/06/19 03:00:17;;;;;;;2.10;2.00;;;25.40;61.40;;;;;;5093787;28;20649;-65
2021/06/19 03:02:43;;;;;;;2.40;2.20;;;25.40;61.30;;;;;;5093155;28;20735;-65
2021/06/19 03:05:10;;;;;;;2.25;2.15;;;25.40;61.30;;;;;;5093090;28;20277;-65
2021/06/19 03:07:36;;;;;;;2.58;2.30;;;25.40;61.40;;;;;;5092593;28;20214;-65
2021/06/19 03:10:02;;;;;;;2.53;2.08;;;25.40;61.40;;;;;;5093618;28;20234;-66
2021/06/19 03:12:28;;;;;;;2.38;2.17;;;25.40;61.40;;;;;;5092758;28;20212;-65
2021/06/19 03:14:54;;;;;;;2.20;2.10;;;25.40;61.30;;;;;;5093135;28;20213;-65
2021/06/19 03:17:20;;;;;;;2.13;2.00;;;25.40;61.30;;;;;;5093258;28;20264;-64
2021/06/19 03:19:45;;;;;;;2.58;1.90;;;25.40;61.30;;;;;;5092263;28;20615;-65
2021/06/19 03:22:11;;;;;;;2.38;1.83;;;25.40;61.30;;;;;;5093181;28;20230;-64
2021/06/19 03:24:38;;;;;;;2.00;1.90;;;25.40;61.30;;;;;;5092984;28;20234;-65
2021/06/19 03:27:04;;;;;;;2.08;1.92;;;25.40;61.30;;;;;;5074219;28;20178;-64
2021/06/19 03:29:29;;;;;;;1.90;1.80;;;25.40;61.20;;;;;;5092612;28;20217;-64
2021/06/19 03:31:55;;;;;;;2.67;1.77;;;25.40;61.30;;;;;;5092680;28;20210;-65
2021/06/19 03:34:21;;;;;;;2.55;1.98;;;25.30;61.20;;;;;;5092234;28;20645;-65
2021/06/19 03:36:47;;;;;;;2.60;1.80;;;25.40;61.30;;;;;;5092836;28;20307;-66
2021/06/19 03:39:15;;;;;;;1.70;1.60;;;25.40;61.30;;;;;;5092158;28;20173;-66
2021/06/19 03:41:44;;;;;;;2.33;1.95;;;25.30;61.20;;;;;;5092500;28;20174;-66
2021/06/19 03:44:10;;;;;;;2.35;2.00;;;25.30;61.20;;;;;;5092797;28;20192;-65
2021/06/19 03:46:38;;;;;;;1.70;1.60;;;25.30;61.20;;;;;;5091708;28;20174;-65
2021/06/19 03:49:04;;;;;;;2.20;2.10;;;25.40;61.30;;;;;;5092852;28;20221;-65
2021/06/19 03:51:29;;;;;;;3.13;1.90;;;25.30;61.20;;;;;;5074649;28;20253;-65
2021/06/19 03:53:55;;;;;;;2.33;2.10;;;25.30;61.20;;;;;;5091931;28;20178;-66
2021/06/19 03:56:20;;;;;;;3.25;1.90;;;25.30;61.20;;;;;;5092586;28;20530;-66
2021/06/19 03:58:45;;;;;;;1.67;1.58;;;25.30;61.20;;;;;;5092190;28;20181;-65
2021/06/19 04:01:11;;;;;;;2.03;1.73;;;25.30;61.20;;;;;;5091764;28;20174;-66
2021/06/19 04:03:37;;;;;;;1.90;1.70;;;25.30;61.20;;;;;;5092315;28;20206;-65
2021/06/19 04:06:02;;;;;;;2.05;1.95;;;25.30;61.20;;;;;;5092786;28;20243;-65
2021/06/19 04:08:28;;;;;;;1.90;1.52;;;25.30;61.20;;;;;;5091809;28;20301;-66
2021/06/19 04:10:54;;;;;;;2.05;1.95;;;25.30;61.20;;;;;;5092222;28;20176;-66
2021/06/19 04:13:19;;;;;;;1.83;1.73;;;25.30;61.10;;;;;;5092519;28;20177;-66
2021/06/19 04:15:45;;;;;;;2.22;2.00;;;25.30;61.10;;;;;;5091676;28;20162;-66
2021/06/19 04:18:10;;;;;;;4.35;2.05;;;25.30;61.10;;;;;;5091972;28;20562;-65
2021/06/19 04:20:36;;;;;;;1.75;1.65;;;25.30;61.10;;;;;;5092448;28;20522;-65
2021/06/19 04:23:01;;;;;;;2.20;1.98;;;25.30;61.10;;;;;;5091946;28;20176;-65
2021/06/19 04:25:27;;;;;;;2.20;2.00;;;25.30;61.10;;;;;;5092485;28;20192;-65
2021/06/19 04:27:54;;;;;;;1.80;1.70;;;25.30;61.20;;;;;;5092042;28;20587;-64
2021/06/19 04:30:20;;;;;;;1.90;1.80;;;25.30;61.20;;;;;;5091386;28;20531;-64
2021/06/19 04:32:46;;;;;;;1.67;1.58;;;25.30;61.20;;;;;;5092142;28;20178;-66
2021/06/19 04:35:13;;;;;;;2.20;2.10;;;25.30;61.20;;;;;;5092426;28;20529;-66
2021/06/19 04:37:38;;;;;;;2.00;1.90;;;25.30;61.30;;;;;;5091325;28;20550;-66
2021/06/19 04:40:10;;;;;;;1.77;1.67;;;25.30;61.20;;;;;;5092205;28;20174;-66
2021/06/19 04:42:40;;;;;;;1.67;1.58;;;25.30;61.20;;;;;;5091268;28;20174;-66
2021/06/19 04:45:07;;;;;;;2.08;1.77;;;25.30;61.20;;;;;;5092456;28;20231;-66
2021/06/19 04:47:33;;;;;;;2.63;1.73;;;25.30;61.20;;;;;;5092251;28;20188;-66
2021/06/19 04:49:59;;;;;;;1.90;1.80;;;25.30;61.10;;;;;;5091662;28;20177;-66
2021/06/19 04:52:25;;;;;;;1.55;1.45;;;25.30;62.00;;;;;;5092228;28;20271;-66
2021/06/19 04:54:51;;;;;;;1.48;1.42;;;25.40;61.10;;;;;;5073974;28;20177;-65
2021/06/19 04:57:16;;;;;;;1.70;1.60;;;25.40;61.00;;;;;;5073328;28;20624;-66
2021/06/19 04:59:42;;;;;;;1.98;1.88;;;25.40;61.00;;;;;;5073774;28;20176;-65
2021/06/19 05:02:07;;;;;;;1.60;1.50;;;25.40;61.10;;;;;;5073893;28;20170;-65
2021/06/19 05:04:33;;;;;;;1.67;1.60;;;25.40;61.10;;;;;;5091210;28;20578;-65
2021/06/19 05:06:58;;;;;;;2.20;2.10;;;25.30;61.20;;;;;;5092070;28;20570;-65
2021/06/19 05:09:24;;;;;;;1.70;1.60;;;25.30;61.20;;;;;;5091880;28;20255;-66
2021/06/19 05:11:49;;;;;;;1.65;1.55;;;25.30;61.20;;;;;;5090820;28;20200;-65
2021/06/19 05:14:15;;;;;;;1.80;1.70;;;25.40;61.30;;;;;;5091645;28;20173;-65
2021/06/19 05:16:40;;;;;;;1.98;1.75;;;25.40;61.30;;;;;;5091546;28;20588;-65
2021/06/19 05:19:06;;;;;;;1.63;1.52;;;25.30;61.20;;;;;;5090979;28;20181;-65
2021/06/19 05:21:31;;;;;;;1.67;1.58;;;25.30;61.30;;;;;;5091545;28;20173;-65
2021/06/19 05:23:57;;;;;;;1.75;1.60;;;25.30;61.30;;;;;;5091766;28;20280;-65
2021/06/19 05:26:22;;;;;;;1.67;1.58;;;25.40;61.30;;;;;;5090999;28;20174;-64
2021/06/19 05:28:48;;;;;;;1.88;1.77;;;25.30;61.30;;;;;;5091129;28;20571;-64
2021/06/19 05:31:14;;;;;;;1.95;1.45;;;25.40;61.40;;;;;;5094835;28;20214;-65
2021/06/19 05:33:39;;;;;;;2.55;1.85;;;25.40;61.30;;;;;;5094651;28;20174;-66
2021/06/19 05:36:05;;;;;;;1.75;1.65;;;25.40;61.20;;;;;;5095443;28;20170;-66
2021/06/19 05:38:30;;;;;;;1.35;1.27;;;25.40;61.20;;;;;;5095474;28;20701;-66
2021/06/19 05:40:56;;;;;;;1.70;1.60;;;25.40;61.20;;;;;;5094777;28;20174;-66
2021/06/19 05:43:22;;;;;;;1.80;1.70;;;25.50;61.20;;;;;;5095408;28;20623;-65
2021/06/19 05:45:47;;;;;;;1.55;1.45;;;25.50;61.20;;;;;;5094737;28;20181;-66
2021/06/19 05:48:12;;;;;;;2.42;1.88;;;25.40;61.20;;;;;;5095248;28;20202;-66
2021/06/19 05:50:38;;;;;;;1.70;1.60;;;25.40;61.20;;;;;;5094915;28;20177;-65
2021/06/19 05:53:04;;;;;;;1.67;1.58;;;25.40;61.20;;;;;;5094618;28;20182;-65
2021/06/19 05:55:29;;;;;;;1.90;1.80;;;25.40;61.20;;;;;;5094952;28;20166;-65
2021/06/19 05:57:55;;;;;;;2.08;1.77;;;25.40;61.20;;;;;;5095149;28;20173;-66
2021/06/19 06:00:20;;;;;;;2.40;2.20;;;25.40;61.20;;;;;;5094398;28;20528;-65
2021/06/19 06:02:46;;;;;;;1.63;1.52;;;25.50;61.10;;;;;;5094626;28;20170;-65
2021/06/19 06:05:12;;;;;;;1.98;1.60;;;25.50;61.00;;;;;;5095057;28;20208;-65
2021/06/19 06:07:37;;;;;;;1.80;1.70;;;25.50;61.00;;;;;;5093776;28;20170;-65
2021/06/19 06:10:03;;;;;;;1.80;1.70;;;25.40;61.00;;;;;;5094679;28;20180;-66
2021/06/19 06:12:29;;;;;;;2.05;1.95;;;25.50;61.10;;;;;;5094749;28;20224;-65
2021/06/19 06:14:55;;;;;;;1.90;1.80;;;25.50;61.10;;;;;;5094078;28;20209;-66
2021/06/19 06:17:20;;;;;;;1.85;1.75;;;25.50;61.00;;;;;;5094815;28;20602;-65
2021/06/19 06:19:46;;;;;;;2.15;2.05;;;25.50;61.00;;;;;;5094438;28;20635;-65
2021/06/19 06:22:11;;;;;;;2.17;2.00;;;25.50;61.00;;;;;;5093712;28;20224;-65
2021/06/19 06:24:37;;;;;;;1.80;1.70;;;25.60;61.00;;;;;;5094311;28;20653;-65
2021/06/19 06:27:03;;;;;;;1.95;1.85;;;25.60;61.00;;;;;;5094419;28;20178;-65
2021/06/19 06:29:28;;;;;;;2.03;1.83;;;25.50;61.00;;;;;;5093877;28;20304;-65
2021/06/19 06:31:54;;;;;;;1.88;1.77;;;25.50;61.00;;;;;;5094122;28;20217;-65
2021/06/19 06:34:20;;;;;;;1.95;1.85;;;25.50;61.10;;;;;;5094447;28;20637;-66
2021/06/19 06:36:45;;;;;;;1.80;1.70;;;25.50;61.10;;;;;;5093343;28;20170;-66
2021/06/19 06:39:11;;;;;;;1.88;1.77;;;25.50;60.90;;;;;;5094447;28;20579;-66
2021/06/19 06:41:36;;;;;;;1.75;1.65;;;25.50;60.90;;;;;;5093172;28;20170;-66
2021/06/19 06:44:02;;;;;;;2.17;2.08;;;25.60;61.00;;;;;;5093791;28;20178;-66
2021/06/19 06:46:28;;;;;;;2.53;2.00;;;25.70;60.90;;;;;;5094243;28;20289;-66
2021/06/19 06:48:53;;;;;;;2.17;2.05;;;25.60;60.90;;;;;;5093906;28;20225;-66
2021/06/19 06:51:19;;;;;;;2.10;1.88;;;25.60;61.00;;;;;;5093608;28;20174;-66
2021/06/19 06:53:44;;;;;;;2.30;2.10;;;25.50;61.00;;;;;;5093682;28;20631;-66
2021/06/19 06:56:10;;;;;;;2.10;2.00;;;25.50;61.00;;;;;;5093172;28;20170;-65
2021/06/19 06:58:35;;;;;;;2.42;2.33;;;25.50;61.10;;;;;;5093934;28;20172;-64
2021/06/19 07:01:01;;;;;;;2.50;2.33;;;25.50;61.10;;;;;;5094211;28;20158;-66
2021/06/19 07:03:26;;;;;;;1.88;1.77;;;25.50;61.00;;;;;;5093385;28;20868;-64
2021/06/19 07:05:52;;;;;;;1.95;1.85;;;25.60;61.10;;;;;;5093508;28;20166;-66
2021/06/19 07:08:18;;;;;;;3.00;2.10;;;25.60;60.90;;;;;;5093744;28;20241;-65
2021/06/19 07:10:43;;;;;;;2.97;2.67;;;25.60;60.90;;;;;;5093206;28;20177;-65
2021/06/19 07:13:09;;;;;;;2.63;2.50;;;25.60;60.80;;;;;;5093540;28;20173;-65
2021/06/19 07:15:35;;;;;;;2.70;2.50;;;25.70;60.80;;;;;;5093474;28;20176;-65
2021/06/19 07:18:01;;;;;;;2.85;2.60;;;25.70;61.10;;;;;;5092821;28;20262;-65
2021/06/19 07:20:26;;;;;;;3.00;2.80;;;25.70;61.10;;;;;;5093416;28;20647;-65
2021/06/19 07:22:52;;;;;;;3.63;2.80;;;25.70;61.20;;;;;;5093056;28;20269;-65
2021/06/19 07:25:17;;;;;;;2.90;2.70;;;25.70;61.00;;;;;;5092449;28;20202;-66
2021/06/19 07:27:43;;;;;;;4.60;2.90;;;25.80;60.90;;;;;;5093199;28;20165;-66
2021/06/19 07:30:09;;;;;;;4.10;3.10;;;25.80;60.90;;;;;;5093456;28;20174;-67
2021/06/19 07:32:35;;;;;;;2.63;2.42;;;25.80;60.90;;;;;;5091826;28;20332;-66
2021/06/19 07:35:01;;;;;;;3.33;3.03;;;25.80;60.80;;;;;;5092979;28;20265;-66
2021/06/19 07:37:26;;;;;;;3.97;2.78;;;25.90;61.00;;;;;;5092944;28;20651;-67
2021/06/19 07:39:55;;;;;;;3.40;3.00;;;25.80;60.80;;;;;;5091885;28;20166;-67
2021/06/19 07:42:23;;;;;;;2.92;2.72;;;25.70;60.70;;;;;;5093141;28;20170;-67
2021/06/19 07:44:49;;;;;;;4.13;3.00;;;25.70;60.80;;;;;;5092878;28;20174;-66
2021/06/19 07:47:14;;;;;;;4.90;3.30;;;25.70;60.80;;;;;;5092242;28;20165;-66
2021/06/19 07:49:40;;;;;;;2.83;2.63;;;25.70;60.90;;;;;;5092464;28;20237;-66
2021/06/19 07:52:05;;;;;;;2.80;2.60;;;25.70;60.80;;;;;;5092646;28;20536;-66
2021/06/19 07:54:31;;;;;;;3.03;2.83;;;25.70;60.70;;;;;;5091639;28;20769;-66
2021/06/19 07:56:56;;;;;;;3.28;2.97;;;25.70;60.70;;;;;;5092884;28;20264;-66
2021/06/19 07:59:22;;;;;;;3.75;3.08;;;25.70;61.60;;;;;;5092608;28;20170;-66
2021/06/19 08:01:48;;;;;;;3.90;2.80;;;25.70;60.70;;;;;;5091907;28;20182;-66
2021/06/19 08:04:13;;;;;;;3.63;3.33;;;25.70;60.70;;;;;;5092639;28;20670;-66
2021/06/19 08:06:38;;;;;;;3.85;3.35;;;25.80;60.70;;;;;;5091652;28;20627;-66
2021/06/19 08:09:04;;;;;;;4.80;3.20;;;25.80;60.60;;;;;;5092515;28;20267;-66
2021/06/19 08:11:30;;;;;;;3.45;3.15;;;25.80;60.70;;;;;;5092463;28;20174;-66
2021/06/19 08:13:56;;;;;;;4.18;3.50;;;25.80;60.50;;;;;;5092007;28;20182;-67
2021/06/19 08:16:21;;;;;;;3.28;2.97;;;25.90;60.30;;;;;;5092569;28;20169;-66
2021/06/19 08:18:47;;;;;;;4.40;3.50;;;25.90;60.20;;;;;;5092176;28;20173;-65
2021/06/19 08:21:13;;;;;;;3.83;3.40;;;25.90;60.30;;;;;;5091598;28;20176;-66
2021/06/19 08:23:39;;;;;;;4.03;3.30;;;25.90;60.20;;;;;;5091894;28;20200;-66
2021/06/19 08:26:04;;;;;;;3.67;3.30;;;25.90;60.30;;;;;;5092728;28;20174;-66
2021/06/19 08:28:32;;;;;;;3.28;3.05;;;25.90;61.30;;;;;;5091328;28;20213;-65
2021/06/19 08:30:58;;;;;;;3.15;2.95;;;25.90;60.20;;;;;;5092218;28;20229;-66
2021/06/19 08:33:23;;;;;;;3.80;3.50;;;26.00;60.40;;;;;;5092125;28;20186;-68
2021/06/19 08:35:49;;;;;;;3.33;3.13;;;26.00;60.30;;;;;;5091113;28;20226;-68
2021/06/19 08:38:14;;;;;;;3.10;2.90;;;26.00;60.20;;;;;;5091961;28;20238;-68
2021/06/19 08:40:40;;;;;;;3.60;3.30;;;26.00;60.20;;;;;;5092025;28;20162;-66
2021/06/19 08:43:05;;;;;;;3.92;3.17;;;26.00;60.10;;;;;;5091389;28;20187;-67
2021/06/19 08:45:32;;;;;;;3.72;3.42;;;26.00;60.20;;;;;;5091767;28;20177;-66
2021/06/19 08:47:58;;;;;;;3.90;3.60;;;26.10;60.00;;;;;;5091790;28;20627;-66
2021/06/19 08:50:24;;;;;;;3.90;3.38;;;26.00;60.10;;;;;;5073346;28;20242;-67
2021/06/19 08:52:50;;;;;;;3.63;3.33;;;26.00;60.20;;;;;;5073578;28;20174;-67
2021/06/19 08:55:15;;;;;;;6.43;3.45;;;26.00;60.50;;;;;;5091952;28;20230;-67
2021/06/19 08:57:42;;;;;;;5.13;3.92;;;26.10;60.70;;;;;;5090791;28;20166;-67
2021/06/19 09:00:08;;;;;;;4.15;3.72;;;26.10;61.40;;;;;;5092001;28;20182;-68
2021/06/19 09:02:34;;;;;;;5.07;4.25;;;26.10;60.40;;;;;;5091362;28;20174;-67
2021/06/19 09:05:08;;;;;;;4.05;3.35;;;26.10;60.40;;;;;;5092707;28;20227;-67
2021/06/19 09:07:42;;;;;;;5.05;3.95;;;26.20;60.30;;;;;;5095673;28;20177;-68
2021/06/19 09:10:31;;;;;;;4.40;3.97;;;26.20;60.40;;;;;;5095276;28;20170;-66
2021/06/19 09:13:10;;;;;;;4.75;3.50;;;26.10;60.40;;;;;;5095867;28;20178;-67
2021/06/19 09:15:49;;;;;;;4.13;3.70;;;26.20;60.60;;;;;;5095386;28;20619;-68
2021/06/19 09:18:22;;;;;;;4.25;3.88;;;26.20;60.60;;;;;;5095174;28;20263;-67
2021/06/19 09:20:53;;;;;;;5.22;3.92;;;26.20;60.50;;;;;;5095410;28;20177;-67
2021/06/19 09:23:26;;;;;;;6.47;3.80;;;26.20;60.40;;;;;;5095733;28;20265;-66
2021/06/19 09:26:30;;;;;;;7.10;3.83;;;26.20;60.50;;;;;;5094792;28;20234;-67
2021/06/19 09:29:05;;;;;;;4.65;3.97;;;26.20;60.40;;;;;;5013156;28;20637;-68
2021/06/19 09:31:38;;;;;;;9.30;3.85;;;26.30;60.20;;;;;;5084291;28;20286;-69
2021/06/19 09:34:13;;;;;;;4.35;3.85;;;26.30;60.20;;;;;;5095372;28;20201;-70
2021/06/19 09:36:43;;;;;;;5.00;4.00;;;26.20;61.30;;;;;;5095009;28;20612;-67
2021/06/19 09:39:09;;;;;;;6.00;4.25;;;26.20;60.80;;;;;;5094678;28;20177;-67
2021/06/19 09:41:40;;;;;;;4.00;3.60;;;26.20;60.80;;;;;;5095204;28;20272;-67
2021/06/19 09:44:06;;;;;;;4.28;3.80;;;26.20;60.60;;;;;;5095335;28;20188;-67
2021/06/19 09:46:31;;;;;;;5.45;4.25;;;26.20;60.70;;;;;;5094218;28;20176;-66
2021/06/19 09:49:10;;;;;;;5.82;4.10;;;26.20;60.60;;;;;;5095132;28;20292;-66
2021/06/19 09:51:35;;;;;;;4.85;3.88;;;26.20;60.50;;;;;;5094940;28;20170;-66
2021/06/19 09:54:05;;;;;;;4.00;3.70;;;26.30;60.40;;;;;;5094560;28;20192;-67
2021/06/19 09:56:43;;;;;;;4.85;3.60;;;26.30;60.30;;;;;;5094799;28;20178;-66
2021/06/19 09:59:08;;;;;;;4.45;4.15;;;26.30;60.30;;;;;;5076316;28;20181;-66
2021/06/19 10:01:38;;;;;;;3.90;3.60;;;26.30;60.40;;;;;;5076268;28;20185;-67
2021/06/19 10:04:04;;;;;;;5.53;4.20;;;26.30;60.40;;;;;;5094759;28;20634;-67
2021/06/19 10:06:30;;;;;;;4.30;3.90;;;26.30;60.30;;;;;;5093889;28;20690;-66
2021/06/19 10:08:56;;;;;;;4.35;3.95;;;26.30;60.20;;;;;;5094665;28;20279;-67
2021/06/19 10:11:24;;;;;;;4.72;4.00;;;26.30;60.30;;;;;;5094826;28;20533;-67
2021/06/19 10:13:50;;;;;;;4.60;4.20;;;26.40;60.20;;;;;;5093727;28;20174;-67
2021/06/19 10:16:16;;;;;;;4.50;4.10;;;26.40;60.10;;;;;;5075230;28;20170;-66
2021/06/19 10:18:43;;;;;;;4.35;3.95;;;26.40;59.90;;;;;;5094496;28;20174;-66
2021/06/19 10:21:08;;;;;;;4.85;4.13;;;26.50;59.80;;;;;;5093854;28;20180;-66
2021/06/19 10:23:34;;;;;;;4.80;4.40;;;26.50;59.80;;;;;;5094202;28;20181;-65
2021/06/19 10:26:00;;;;;;;4.53;4.10;;;26.50;59.80;;;;;;5094480;28;20170;-66
2021/06/19 10:28:25;;;;;;;4.10;3.80;;;26.60;59.70;;;;;;5093459;28;20197;-65
2021/06/19 10:30:51;;;;;;;4.55;4.15;;;26.50;59.80;;;;;;5075655;28;20181;-67
2021/06/19 10:33:32;;;;;;;4.10;3.80;;;26.50;59.80;;;;;;5076250;28;20245;-67
2021/06/19 10:36:02;;;;;;;4.53;4.07;;;26.50;59.80;;;;;;5093747;28;20208;-67
2021/06/19 10:38:28;;;;;;;4.28;3.88;;;26.50;59.80;;;;;;5094412;28;20189;-67
2021/06/19 10:41:00;;;;;;;4.28;3.97;;;26.60;60.50;;;;;;5076001;28;20169;-66
2021/06/19 10:43:27;;;;;;;4.72;4.30;;;26.50;59.80;;;;;;5093616;28;20190;-66
2021/06/19 10:45:53;;;;;;;4.32;4.03;;;26.50;60.10;;;;;;5094009;28;20195;-67
2021/06/19 10:48:19;;;;;;;4.47;4.07;;;26.40;61.00;;;;;;5093444;28;20462;-66
2021/06/19 10:50:47;;;;;;;4.20;3.90;;;26.30;60.20;;;;;;5093709;28;20253;-67
2021/06/19 10:53:20;;;;;;;4.50;4.10;;;26.40;60.20;;;;;;5094000;28;20182;-66
2021/06/19 10:55:55;;;;;;;4.55;4.10;;;26.30;60.30;;;;;;5092751;28;20180;-67
2021/06/19 10:58:31;;;;;;;4.97;4.30;;;26.30;60.50;;;;;;5094191;28;20174;-66
2021/06/19 11:01:04;;;;;;;4.60;4.20;;;26.30;60.80;;;;;;5094189;28;20547;-67
2021/06/19 11:03:54;;;;;;;4.95;4.53;;;26.30;60.80;;;;;;5092964;28;20182;-67
2021/06/19 11:06:36;;;;;;;5.45;4.63;;;26.30;61.20;;;;;;5094061;28;20209;-67
2021/06/19 11:09:18;;;;;;;4.32;3.92;;;26.30;61.20;;;;;;5093833;28;20263;-67
2021/06/19 11:11:56;;;;;;;5.03;4.38;;;26.30;61.50;;;;;;5093355;28;20256;-67
2021/06/19 11:14:43;;;;;;;6.13;4.13;;;26.30;61.60;;;;;;5093556;28;20173;-67
2021/06/19 11:17:32;;;;;;;4.93;4.43;;;26.30;61.30;;;;;;5092746;28;20517;-65
2021/06/19 11:20:24;;;;;;;4.55;4.15;;;26.50;61.10;;;;;;5080536;28;20189;-66
2021/06/19 11:22:52;;;;;;;4.35;3.95;;;26.50;61.10;;;;;;5088834;28;20668;-65
2021/06/19 11:25:52;;;;;;;4.85;4.38;;;26.50;60.90;;;;;;5092636;28;20166;-65
2021/06/19 11:28:17;;;;;;;7.65;4.07;;;26.60;60.80;;;;;;5092753;28;20217;-65
2021/06/19 11:30:44;;;;;;;4.88;4.47;;;26.60;60.50;;;;;;5091844;28;20178;-66
2021/06/19 11:33:16;;;;;;;6.60;3.85;;;26.60;60.70;;;;;;5093035;28;20257;-65
2021/06/19 11:35:42;;;;;;;4.28;3.97;;;26.70;60.60;;;;;;5092845;28;20177;-67
2021/06/19 11:38:07;;;;;;;4.60;4.20;;;26.80;60.40;;;;;;5092066;28;20644;-66
2021/06/19 11:40:34;;;;;;;4.43;4.07;;;26.80;60.30;;;;;;5092688;28;20185;-66
2021/06/19 11:43:00;;;;;;;6.18;4.40;;;26.80;60.30;;;;;;5092792;28;20177;-66
2021/06/19 11:45:25;;;;;;;4.22;3.85;;;26.80;60.30;;;;;;5092080;28;20170;-67
2021/06/19 11:48:03;;;;;;;4.82;4.18;;;26.80;60.40;;;;;;5092256;28;20174;-68
2021/06/19 11:50:29;;;;;;;6.05;3.90;;;26.80;60.50;;;;;;5092507;28;20268;-67
2021/06/19 11:52:55;;;;;;;4.35;4.05;;;26.70;60.60;;;;;;5092087;28;20178;-67
2021/06/19 11:55:21;;;;;;;4.18;3.80;;;26.70;60.80;;;;;;5092427;28;20182;-67
2021/06/19 11:57:46;;;;;;;4.32;3.92;;;26.70;60.90;;;;;;5092228;28;20256;-67
2021/06/19 12:00:15;;;;;;;4.15;3.80;;;26.70;60.70;;;;;;5073501;28;20176;-67
2021/06/19 12:02:41;;;;;;;4.35;3.95;;;26.80;60.80;;;;;;5092343;28;20242;-67
2021/06/19 12:05:14;;;;;;;5.63;4.38;;;26.80;60.60;;;;;;5092582;28;20185;-66
2021/06/19 12:07:39;;;;;;;4.53;4.20;;;26.80;60.80;;;;;;5091300;28;20230;-67
2021/06/19 12:10:25;;;;;;;4.95;4.47;;;26.80;60.60;;;;;;5092348;28;20174;-67
2021/06/19 12:12:58;;;;;;;4.15;3.78;;;26.80;60.60;;;;;;5091728;28;20201;-67
2021/06/19 12:15:23;;;;;;;4.95;4.55;;;26.80;60.50;;;;;;5092477;28;20178;-66
2021/06/19 12:17:49;;;;;;;4.80;4.40;;;26.80;60.60;;;;;;5092123;28;20606;-67
2021/06/19 12:20:21;;;;;;;3.88;3.60;;;26.80;61.00;;;;;;5091627;28;20180;-67
2021/06/19 12:22:47;;;;;;;4.60;4.20;;;26.80;60.80;;;;;;5091824;28;20192;-67
2021/06/19 12:25:26;;;;;;;4.72;4.25;;;26.70;60.80;;;;;;5092021;28;20186;-67
2021/06/19 12:27:51;;;;;;;5.18;4.68;;;26.80;60.90;;;;;;5091157;28;20174;-67
2021/06/19 12:30:17;;;;;;;4.55;4.15;;;26.70;60.90;;;;;;5092212;28;20181;-67
2021/06/19 12:32:43;;;;;;;5.22;4.72;;;26.80;61.00;;;;;;5091537;28;20237;-68
2021/06/19 12:35:13;;;;;;;5.30;4.78;;;26.70;60.80;;;;;;5073230;28;20192;-67
2021/06/19 12:37:48;;;;;;;5.10;4.65;;;26.80;60.90;;;;;;5091620;28;20201;-68
2021/06/19 12:40:14;;;;;;;4.70;4.30;;;26.70;60.70;;;;;;5091334;28;20252;-66
2021/06/19 12:42:46;;;;;;;4.60;4.30;;;26.80;60.80;;;;;;5091052;28;20680;-65
2021/06/19 12:45:19;;;;;;;5.30;4.80;;;26.70;60.80;;;;;;5092015;28;20170;-67
2021/06/19 12:47:46;;;;;;;4.65;4.25;;;26.70;60.80;;;;;;5091397;28;20246;-68
2021/06/19 12:50:19;;;;;;;5.35;4.82;;;26.70;61.00;;;;;;5091687;28;20181;-68